sensor_id;sensor_type;location;lat;lon;timestamp;P1;durP1;ratioP1;P2;durP2;ratioP2
21758;SDS011;11041;50.854;20.580;2022-07-06T00:02:09;14.60;;;12.48;;
21758;SDS011;11041;50.854;20.580;2022-07-06T00:04:35;13.65;;;12.32;;
21758;SDS011;11041;50.854;20.580;2022-07-06T00:07:02;12.63;;;11.52;;
21758;SDS011;11041;50.854;20.580;2022-07-06T00:09:28;11.45;;;10.32;;
21758;SDS011;11041;50.854;20.580;2022-07-06T00:11:54;13.15;;;11.90;;
21758;SDS011;11041;50.854;20.580;2022-07-06T00:14:21;13.02;;;11.02;;
21758;SDS011;11041;50.854;20.580;2022-07-06T00:16:48;13.32;;;11.95;;
21758;SDS011;11041;50.854;20.580;2022-07-06T00:19:15;13.38;;;12.13;;
21758;SDS011;11041;50.854;20.580;2022-07-06T00:21:41;12.82;;;11.25;;
21758;SDS011;11041;50.854;20.580;2022-07-06T00:24:08;11.80;;;10.75;;
21758;SDS011;11041;50.854;20.580;2022-07-06T00:26:34;12.90;;;11.13;;
21758;SDS011;11041;50.854;20.580;2022-07-06T00:29:01;12.95;;;11.75;;
21758;SDS011;11041;50.854;20.580;2022-07-06T00:31:28;11.52;;;10.40;;
21758;SDS011;11041;50.854;20.580;2022-07-06T00:33:55;11.43;;;10.43;;
21758;SDS011;11041;50.854;20.580;2022-07-06T00:36:25;10.93;;;9.85;;
21758;SDS011;11041;50.854;20.580;2022-07-06T00:38:51;10.63;;;9.60;;
21758;SDS011;11041;50.854;20.580;2022-07-06T00:41:18;10.90;;;9.80;;
21758;SDS011;11041;50.854;20.580;2022-07-06T00:43:48;10.93;;;9.90;;
21758;SDS011;11041;50.854;20.580;2022-07-06T00:46:35;9.98;;;8.52;;
21758;SDS011;11041;50.854;20.580;2022-07-06T00:49:02;10.13;;;9.20;;
21758;SDS011;11041;50.854;20.580;2022-07-06T00:51:30;9.85;;;8.98;;
21758;SDS011;11041;50.854;20.580;2022-07-06T00:54:03;9.73;;;8.93;;
21758;SDS011;11041;50.854;20.580;2022-07-06T00:56:31;9.68;;;8.88;;
21758;SDS011;11041;50.854;20.580;2022-07-06T00:59:00;9.82;;;9.02;;
21758;SDS011;11041;50.854;20.580;2022-07-06T01:01:28;10.00;;;9.15;;
21758;SDS011;11041;50.854;20.580;2022-07-06T01:03:55;8.13;;;7.28;;
21758;SDS011;11041;50.854;20.580;2022-07-06T01:06:21;9.02;;;8.25;;
21758;SDS011;11041;50.854;20.580;2022-07-06T01:08:48;9.52;;;8.73;;
21758;SDS011;11041;50.854;20.580;2022-07-06T01:11:16;9.32;;;8.52;;
21758;SDS011;11041;50.854;20.580;2022-07-06T01:13:46;9.30;;;8.50;;
21758;SDS011;11041;50.854;20.580;2022-07-06T01:16:16;9.32;;;8.52;;
21758;SDS011;11041;50.854;20.580;2022-07-06T01:18:43;8.63;;;7.85;;
21758;SDS011;11041;50.854;20.580;2022-07-06T01:21:12;8.75;;;7.95;;
21758;SDS011;11041;50.854;20.580;2022-07-06T01:23:44;8.13;;;7.43;;
21758;SDS011;11041;50.854;20.580;2022-07-06T01:26:14;7.60;;;6.90;;
21758;SDS011;11041;50.854;20.580;2022-07-06T01:28:46;7.05;;;6.45;;
21758;SDS011;11041;50.854;20.580;2022-07-06T01:31:27;7.60;;;6.90;;
21758;SDS011;11041;50.854;20.580;2022-07-06T01:33:55;6.55;;;6.05;;
21758;SDS011;11041;50.854;20.580;2022-07-06T01:36:23;6.93;;;6.40;;
21758;SDS011;11041;50.854;20.580;2022-07-06T01:38:50;6.50;;;5.95;;
21758;SDS011;11041;50.854;20.580;2022-07-06T01:41:19;6.25;;;5.75;;
21758;SDS011;11041;50.854;20.580;2022-07-06T01:43:47;6.97;;;6.28;;
21758;SDS011;11041;50.854;20.580;2022-07-06T01:46:14;5.55;;;5.15;;
21758;SDS011;11041;50.854;20.580;2022-07-06T01:48:42;5.38;;;4.88;;
21758;SDS011;11041;50.854;20.580;2022-07-06T01:51:09;6.20;;;5.60;;
21758;SDS011;11041;50.854;20.580;2022-07-06T01:53:37;5.70;;;5.30;;
21758;SDS011;11041;50.854;20.580;2022-07-06T01:56:05;6.78;;;5.10;;
21758;SDS011;11041;50.854;20.580;2022-07-06T01:58:32;6.03;;;5.53;;
21758;SDS011;11041;50.854;20.580;2022-07-06T02:00:58;5.05;;;4.55;;
21758;SDS011;11041;50.854;20.580;2022-07-06T02:03:25;5.13;;;4.72;;
21758;SDS011;11041;50.854;20.580;2022-07-06T02:05:52;5.25;;;4.75;;
21758;SDS011;11041;50.854;20.580;2022-07-06T02:08:18;6.82;;;5.60;;
21758;SDS011;11041;50.854;20.580;2022-07-06T02:10:45;5.88;;;5.47;;
21758;SDS011;11041;50.854;20.580;2022-07-06T02:13:11;6.47;;;5.38;;
21758;SDS011;11041;50.854;20.580;2022-07-06T02:15:38;6.13;;;5.65;;
21758;SDS011;11041;50.854;20.580;2022-07-06T02:18:04;5.78;;;5.15;;
21758;SDS011;11041;50.854;20.580;2022-07-06T02:20:31;6.15;;;5.55;;
21758;SDS011;11041;50.854;20.580;2022-07-06T02:22:57;5.88;;;5.38;;
21758;SDS011;11041;50.854;20.580;2022-07-06T02:25:24;6.60;;;6.05;;
21758;SDS011;11041;50.854;20.580;2022-07-06T02:27:50;6.10;;;5.70;;
21758;SDS011;11041;50.854;20.580;2022-07-06T02:30:17;7.10;;;6.40;;
21758;SDS011;11041;50.854;20.580;2022-07-06T02:32:44;7.03;;;6.45;;
21758;SDS011;11041;50.854;20.580;2022-07-06T02:35:10;6.88;;;6.22;;
21758;SDS011;11041;50.854;20.580;2022-07-06T02:37:37;7.50;;;6.80;;
21758;SDS011;11041;50.854;20.580;2022-07-06T02:40:04;6.43;;;5.88;;
21758;SDS011;11041;50.854;20.580;2022-07-06T02:42:31;6.78;;;5.93;;
21758;SDS011;11041;50.854;20.580;2022-07-06T02:44:58;7.00;;;6.43;;
21758;SDS011;11041;50.854;20.580;2022-07-06T02:47:24;6.65;;;6.10;;
21758;SDS011;11041;50.854;20.580;2022-07-06T02:49:51;6.65;;;6.05;;
21758;SDS011;11041;50.854;20.580;2022-07-06T02:52:19;6.28;;;5.75;;
21758;SDS011;11041;50.854;20.580;2022-07-06T02:54:45;7.40;;;6.80;;
21758;SDS011;11041;50.854;20.580;2022-07-06T02:57:14;6.57;;;6.07;;
21758;SDS011;11041;50.854;20.580;2022-07-06T02:59:42;6.68;;;6.18;;
21758;SDS011;11041;50.854;20.580;2022-07-06T03:02:10;6.28;;;5.70;;
21758;SDS011;11041;50.854;20.580;2022-07-06T03:04:36;6.53;;;5.93;;
21758;SDS011;11041;50.854;20.580;2022-07-06T03:07:03;6.22;;;5.72;;
21758;SDS011;11041;50.854;20.580;2022-07-06T03:09:30;5.85;;;5.45;;
21758;SDS011;11041;50.854;20.580;2022-07-06T03:11:56;6.85;;;5.80;;
21758;SDS011;11041;50.854;20.580;2022-07-06T03:14:24;6.82;;;6.32;;
21758;SDS011;11041;50.854;20.580;2022-07-06T03:16:51;7.10;;;6.50;;
21758;SDS011;11041;50.854;20.580;2022-07-06T03:19:17;5.35;;;4.95;;
21758;SDS011;11041;50.854;20.580;2022-07-06T03:21:44;7.22;;;6.63;;
21758;SDS011;11041;50.854;20.580;2022-07-06T03:24:11;7.05;;;6.40;;
21758;SDS011;11041;50.854;20.580;2022-07-06T03:26:37;7.22;;;6.57;;
21758;SDS011;11041;50.854;20.580;2022-07-06T03:29:04;9.02;;;7.18;;
21758;SDS011;11041;50.854;20.580;2022-07-06T03:31:30;9.00;;;6.43;;
21758;SDS011;11041;50.854;20.580;2022-07-06T03:33:57;7.72;;;7.07;;
21758;SDS011;11041;50.854;20.580;2022-07-06T03:36:23;7.15;;;6.57;;
21758;SDS011;11041;50.854;20.580;2022-07-06T03:38:50;7.50;;;6.82;;
21758;SDS011;11041;50.854;20.580;2022-07-06T03:41:16;7.57;;;6.97;;
21758;SDS011;11041;50.854;20.580;2022-07-06T03:43:43;6.88;;;6.28;;
21758;SDS011;11041;50.854;20.580;2022-07-06T03:46:10;6.30;;;5.80;;
21758;SDS011;11041;50.854;20.580;2022-07-06T03:48:36;8.15;;;7.40;;
21758;SDS011;11041;50.854;20.580;2022-07-06T03:51:02;8.30;;;7.60;;
21758;SDS011;11041;50.854;20.580;2022-07-06T03:53:29;7.25;;;6.65;;
21758;SDS011;11041;50.854;20.580;2022-07-06T03:55:57;8.27;;;6.43;;
21758;SDS011;11041;50.854;20.580;2022-07-06T03:58:42;8.25;;;6.45;;
21758;SDS011;11041;50.854;20.580;2022-07-06T04:01:09;8.10;;;6.75;;
21758;SDS011;11041;50.854;20.580;2022-07-06T04:03:35;8.32;;;7.63;;
21758;SDS011;11041;50.854;20.580;2022-07-06T04:06:02;7.60;;;7.05;;
21758;SDS011;11041;50.854;20.580;2022-07-06T04:08:29;8.00;;;7.32;;
21758;SDS011;11041;50.854;20.580;2022-07-06T04:10:55;7.20;;;6.50;;
21758;SDS011;11041;50.854;20.580;2022-07-06T04:13:22;7.05;;;6.45;;
21758;SDS011;11041;50.854;20.580;2022-07-06T04:15:49;7.93;;;7.22;;
21758;SDS011;11041;50.854;20.580;2022-07-06T04:18:15;7.10;;;6.50;;
21758;SDS011;11041;50.854;20.580;2022-07-06T04:20:42;7.60;;;7.00;;
21758;SDS011;11041;50.854;20.580;2022-07-06T04:23:09;7.03;;;6.43;;
21758;SDS011;11041;50.854;20.580;2022-07-06T04:25:35;6.82;;;6.22;;
21758;SDS011;11041;50.854;20.580;2022-07-06T04:28:02;8.07;;;7.47;;
21758;SDS011;11041;50.854;20.580;2022-07-06T04:30:28;7.97;;;7.38;;
21758;SDS011;11041;50.854;20.580;2022-07-06T04:32:55;8.23;;;7.47;;
21758;SDS011;11041;50.854;20.580;2022-07-06T04:35:22;7.57;;;6.97;;
21758;SDS011;11041;50.854;20.580;2022-07-06T04:37:48;8.93;;;8.13;;
21758;SDS011;11041;50.854;20.580;2022-07-06T04:40:15;7.18;;;6.57;;
21758;SDS011;11041;50.854;20.580;2022-07-06T04:42:42;8.48;;;7.57;;
21758;SDS011;11041;50.854;20.580;2022-07-06T04:45:09;7.88;;;7.10;;
21758;SDS011;11041;50.854;20.580;2022-07-06T04:47:36;9.93;;;8.60;;
21758;SDS011;11041;50.854;20.580;2022-07-06T04:50:03;7.97;;;7.38;;
21758;SDS011;11041;50.854;20.580;2022-07-06T04:52:30;8.68;;;7.97;;
21758;SDS011;11041;50.854;20.580;2022-07-06T04:54:57;8.55;;;7.68;;
21758;SDS011;11041;50.854;20.580;2022-07-06T04:57:24;6.65;;;6.07;;
21758;SDS011;11041;50.854;20.580;2022-07-06T04:59:51;7.25;;;6.65;;
21758;SDS011;11041;50.854;20.580;2022-07-06T05:02:18;6.18;;;5.63;;
21758;SDS011;11041;50.854;20.580;2022-07-06T05:04:44;6.35;;;5.78;;
21758;SDS011;11041;50.854;20.580;2022-07-06T05:07:11;6.43;;;5.93;;
21758;SDS011;11041;50.854;20.580;2022-07-06T05:09:37;6.28;;;5.80;;
21758;SDS011;11041;50.854;20.580;2022-07-06T05:12:04;6.25;;;5.70;;
21758;SDS011;11041;50.854;20.580;2022-07-06T05:14:31;6.70;;;6.07;;
21758;SDS011;11041;50.854;20.580;2022-07-06T05:16:58;6.85;;;5.57;;
21758;SDS011;11041;50.854;20.580;2022-07-06T05:19:24;7.22;;;6.53;;
21758;SDS011;11041;50.854;20.580;2022-07-06T05:21:51;7.75;;;6.97;;
21758;SDS011;11041;50.854;20.580;2022-07-06T05:24:17;6.35;;;5.85;;
21758;SDS011;11041;50.854;20.580;2022-07-06T05:26:44;6.25;;;5.57;;
21758;SDS011;11041;50.854;20.580;2022-07-06T05:29:11;6.13;;;5.63;;
21758;SDS011;11041;50.854;20.580;2022-07-06T05:31:38;5.60;;;5.20;;
21758;SDS011;11041;50.854;20.580;2022-07-06T05:34:04;6.60;;;6.00;;
21758;SDS011;11041;50.854;20.580;2022-07-06T05:36:31;8.07;;;7.28;;
21758;SDS011;11041;50.854;20.580;2022-07-06T05:38:57;8.18;;;7.10;;
21758;SDS011;11041;50.854;20.580;2022-07-06T05:41:24;7.25;;;6.65;;
21758;SDS011;11041;50.854;20.580;2022-07-06T05:43:50;7.25;;;6.65;;
21758;SDS011;11041;50.854;20.580;2022-07-06T05:46:16;5.57;;;5.00;;
21758;SDS011;11041;50.854;20.580;2022-07-06T05:48:43;6.13;;;5.63;;
21758;SDS011;11041;50.854;20.580;2022-07-06T05:51:28;5.72;;;5.32;;
21758;SDS011;11041;50.854;20.580;2022-07-06T05:53:55;5.88;;;5.38;;
21758;SDS011;11041;50.854;20.580;2022-07-06T05:56:22;6.57;;;6.00;;
21758;SDS011;11041;50.854;20.580;2022-07-06T05:58:48;7.03;;;5.28;;
21758;SDS011;11041;50.854;20.580;2022-07-06T06:01:15;5.60;;;5.10;;
21758;SDS011;11041;50.854;20.580;2022-07-06T06:03:41;6.00;;;5.43;;
21758;SDS011;11041;50.854;20.580;2022-07-06T06:06:08;8.32;;;5.75;;
21758;SDS011;11041;50.854;20.580;2022-07-06T06:08:34;9.85;;;5.47;;
21758;SDS011;11041;50.854;20.580;2022-07-06T06:11:01;6.35;;;5.85;;
21758;SDS011;11041;50.854;20.580;2022-07-06T06:13:27;5.75;;;5.25;;
21758;SDS011;11041;50.854;20.580;2022-07-06T06:15:54;6.80;;;5.72;;
21758;SDS011;11041;50.854;20.580;2022-07-06T06:18:20;7.68;;;5.95;;
21758;SDS011;11041;50.854;20.580;2022-07-06T06:20:47;6.47;;;5.95;;
21758;SDS011;11041;50.854;20.580;2022-07-06T06:23:14;16.80;;;5.75;;
21758;SDS011;11041;50.854;20.580;2022-07-06T06:25:41;6.30;;;5.72;;
21758;SDS011;11041;50.854;20.580;2022-07-06T06:28:08;7.10;;;5.43;;
21758;SDS011;11041;50.854;20.580;2022-07-06T06:30:37;5.55;;;5.10;;
21758;SDS011;11041;50.854;20.580;2022-07-06T06:33:18;5.65;;;5.18;;
21758;SDS011;11041;50.854;20.580;2022-07-06T06:35:47;5.18;;;4.63;;
21758;SDS011;11041;50.854;20.580;2022-07-06T06:38:17;5.82;;;5.35;;
21758;SDS011;11041;50.854;20.580;2022-07-06T06:40:46;4.80;;;4.40;;
21758;SDS011;11041;50.854;20.580;2022-07-06T06:43:13;5.68;;;4.78;;
21758;SDS011;11041;50.854;20.580;2022-07-06T06:45:40;5.20;;;4.80;;
21758;SDS011;11041;50.854;20.580;2022-07-06T06:48:06;4.93;;;4.53;;
21758;SDS011;11041;50.854;20.580;2022-07-06T06:50:33;5.65;;;5.15;;
21758;SDS011;11041;50.854;20.580;2022-07-06T06:52:59;5.07;;;4.60;;
21758;SDS011;11041;50.854;20.580;2022-07-06T06:55:25;4.93;;;4.43;;
21758;SDS011;11041;50.854;20.580;2022-07-06T06:57:52;4.50;;;4.10;;
21758;SDS011;11041;50.854;20.580;2022-07-06T07:00:19;4.90;;;4.50;;
21758;SDS011;11041;50.854;20.580;2022-07-06T07:02:45;5.63;;;4.50;;
21758;SDS011;11041;50.854;20.580;2022-07-06T07:05:12;5.38;;;4.55;;
21758;SDS011;11041;50.854;20.580;2022-07-06T07:07:39;4.97;;;4.47;;
21758;SDS011;11041;50.854;20.580;2022-07-06T07:10:05;5.82;;;4.38;;
21758;SDS011;11041;50.854;20.580;2022-07-06T07:12:33;5.60;;;4.72;;
21758;SDS011;11041;50.854;20.580;2022-07-06T07:14:59;5.20;;;4.70;;
21758;SDS011;11041;50.854;20.580;2022-07-06T07:17:26;7.88;;;4.97;;
21758;SDS011;11041;50.854;20.580;2022-07-06T07:19:53;5.50;;;5.00;;
21758;SDS011;11041;50.854;20.580;2022-07-06T07:22:22;5.53;;;5.00;;
21758;SDS011;11041;50.854;20.580;2022-07-06T07:24:50;5.95;;;5.00;;
21758;SDS011;11041;50.854;20.580;2022-07-06T07:27:17;5.70;;;5.13;;
21758;SDS011;11041;50.854;20.580;2022-07-06T07:29:43;5.45;;;4.80;;
21758;SDS011;11041;50.854;20.580;2022-07-06T07:32:10;5.78;;;5.28;;
21758;SDS011;11041;50.854;20.580;2022-07-06T07:34:37;6.43;;;4.95;;
21758;SDS011;11041;50.854;20.580;2022-07-06T07:37:03;5.90;;;5.40;;
21758;SDS011;11041;50.854;20.580;2022-07-06T07:39:29;5.50;;;5.03;;
21758;SDS011;11041;50.854;20.580;2022-07-06T07:41:56;6.68;;;5.75;;
21758;SDS011;11041;50.854;20.580;2022-07-06T07:44:22;9.82;;;6.03;;
21758;SDS011;11041;50.854;20.580;2022-07-06T07:46:50;5.60;;;5.10;;
21758;SDS011;11041;50.854;20.580;2022-07-06T07:49:18;5.88;;;5.20;;
21758;SDS011;11041;50.854;20.580;2022-07-06T07:51:47;7.00;;;4.97;;
21758;SDS011;11041;50.854;20.580;2022-07-06T07:54:14;6.20;;;5.35;;
21758;SDS011;11041;50.854;20.580;2022-07-06T07:56:42;6.75;;;6.15;;
21758;SDS011;11041;50.854;20.580;2022-07-06T07:59:08;7.57;;;5.72;;
21758;SDS011;11041;50.854;20.580;2022-07-06T08:01:35;6.18;;;5.70;;
21758;SDS011;11041;50.854;20.580;2022-07-06T08:04:02;6.82;;;6.22;;
21758;SDS011;11041;50.854;20.580;2022-07-06T08:06:29;6.03;;;5.43;;
21758;SDS011;11041;50.854;20.580;2022-07-06T08:08:56;6.03;;;5.63;;
21758;SDS011;11041;50.854;20.580;2022-07-06T08:11:23;5.97;;;5.45;;
21758;SDS011;11041;50.854;20.580;2022-07-06T08:13:49;6.60;;;5.95;;
21758;SDS011;11041;50.854;20.580;2022-07-06T08:16:16;6.55;;;5.70;;
21758;SDS011;11041;50.854;20.580;2022-07-06T08:18:42;8.32;;;5.80;;
21758;SDS011;11041;50.854;20.580;2022-07-06T08:21:09;6.53;;;5.85;;
21758;SDS011;11041;50.854;20.580;2022-07-06T08:23:36;6.00;;;5.40;;
21758;SDS011;11041;50.854;20.580;2022-07-06T08:26:03;6.25;;;5.43;;
21758;SDS011;11041;50.854;20.580;2022-07-06T08:28:29;6.65;;;5.20;;
21758;SDS011;11041;50.854;20.580;2022-07-06T08:30:56;6.70;;;4.97;;
21758;SDS011;11041;50.854;20.580;2022-07-06T08:33:23;6.00;;;5.40;;
21758;SDS011;11041;50.854;20.580;2022-07-06T08:35:49;5.63;;;5.22;;
21758;SDS011;11041;50.854;20.580;2022-07-06T08:38:15;5.30;;;4.80;;
21758;SDS011;11041;50.854;20.580;2022-07-06T08:40:42;5.90;;;4.32;;
21758;SDS011;11041;50.854;20.580;2022-07-06T08:43:12;7.25;;;5.10;;
21758;SDS011;11041;50.854;20.580;2022-07-06T08:45:40;7.93;;;5.15;;
21758;SDS011;11041;50.854;20.580;2022-07-06T08:48:09;5.85;;;5.22;;
21758;SDS011;11041;50.854;20.580;2022-07-06T08:50:37;5.07;;;4.57;;
21758;SDS011;11041;50.854;20.580;2022-07-06T08:53:04;4.70;;;4.20;;
21758;SDS011;11041;50.854;20.580;2022-07-06T08:55:32;4.57;;;4.18;;
21758;SDS011;11041;50.854;20.580;2022-07-06T08:57:59;4.45;;;4.05;;
21758;SDS011;11041;50.854;20.580;2022-07-06T09:00:26;5.03;;;4.32;;
21758;SDS011;11041;50.854;20.580;2022-07-06T09:02:53;5.03;;;4.35;;
21758;SDS011;11041;50.854;20.580;2022-07-06T09:05:22;4.60;;;4.28;;
21758;SDS011;11041;50.854;20.580;2022-07-06T09:07:50;3.92;;;3.53;;
21758;SDS011;11041;50.854;20.580;2022-07-06T09:10:19;4.75;;;3.88;;
21758;SDS011;11041;50.854;20.580;2022-07-06T09:12:47;4.47;;;3.40;;
21758;SDS011;11041;50.854;20.580;2022-07-06T09:15:14;4.75;;;3.72;;
21758;SDS011;11041;50.854;20.580;2022-07-06T09:17:42;5.10;;;4.70;;
21758;SDS011;11041;50.854;20.580;2022-07-06T09:20:10;5.55;;;4.05;;
21758;SDS011;11041;50.854;20.580;2022-07-06T09:22:40;5.43;;;4.03;;
21758;SDS011;11041;50.854;20.580;2022-07-06T09:27:40;4.05;;;3.75;;
21758;SDS011;11041;50.854;20.580;2022-07-06T09:30:16;5.38;;;4.40;;
21758;SDS011;11041;50.854;20.580;2022-07-06T09:32:44;4.97;;;3.88;;
21758;SDS011;11041;50.854;20.580;2022-07-06T09:35:23;5.65;;;4.00;;
21758;SDS011;11041;50.854;20.580;2022-07-06T09:38:01;5.50;;;4.50;;
21758;SDS011;11041;50.854;20.580;2022-07-06T09:40:33;4.65;;;4.28;;
21758;SDS011;11041;50.854;20.580;2022-07-06T09:43:22;4.05;;;3.60;;
21758;SDS011;11041;50.854;20.580;2022-07-06T09:45:50;5.85;;;4.30;;
21758;SDS011;11041;50.854;20.580;2022-07-06T09:48:21;4.55;;;3.80;;
21758;SDS011;11041;50.854;20.580;2022-07-06T09:50:54;5.22;;;4.05;;
21758;SDS011;11041;50.854;20.580;2022-07-06T09:53:25;5.68;;;3.47;;
21758;SDS011;11041;50.854;20.580;2022-07-06T09:55:53;5.63;;;3.92;;
21758;SDS011;11041;50.854;20.580;2022-07-06T09:58:23;4.90;;;3.95;;
21758;SDS011;11041;50.854;20.580;2022-07-06T10:00:50;3.83;;;3.53;;
21758;SDS011;11041;50.854;20.580;2022-07-06T10:03:18;4.50;;;3.72;;
21758;SDS011;11041;50.854;20.580;2022-07-06T10:05:45;3.60;;;3.30;;
21758;SDS011;11041;50.854;20.580;2022-07-06T10:08:15;4.20;;;3.47;;
21758;SDS011;11041;50.854;20.580;2022-07-06T10:10:43;6.03;;;4.13;;
21758;SDS011;11041;50.854;20.580;2022-07-06T10:13:10;5.82;;;3.80;;
21758;SDS011;11041;50.854;20.580;2022-07-06T10:15:39;4.07;;;3.30;;
21758;SDS011;11041;50.854;20.580;2022-07-06T10:18:08;5.70;;;3.50;;
21758;SDS011;11041;50.854;20.580;2022-07-06T10:20:36;4.30;;;3.45;;
21758;SDS011;11041;50.854;20.580;2022-07-06T10:23:05;5.15;;;3.00;;
21758;SDS011;11041;50.854;20.580;2022-07-06T10:25:34;3.38;;;2.53;;
21758;SDS011;11041;50.854;20.580;2022-07-06T10:28:01;5.15;;;2.53;;
21758;SDS011;11041;50.854;20.580;2022-07-06T10:30:36;3.60;;;2.67;;
21758;SDS011;11041;50.854;20.580;2022-07-06T10:33:03;2.75;;;2.55;;
21758;SDS011;11041;50.854;20.580;2022-07-06T10:35:30;4.93;;;3.00;;
21758;SDS011;11041;50.854;20.580;2022-07-06T10:38:03;4.88;;;2.92;;
21758;SDS011;11041;50.854;20.580;2022-07-06T10:40:36;5.25;;;2.95;;
21758;SDS011;11041;50.854;20.580;2022-07-06T10:43:32;3.88;;;2.63;;
21758;SDS011;11041;50.854;20.580;2022-07-06T10:46:21;3.92;;;3.10;;
21758;SDS011;11041;50.854;20.580;2022-07-06T10:48:48;2.83;;;2.63;;
21758;SDS011;11041;50.854;20.580;2022-07-06T10:51:26;5.30;;;3.30;;
21758;SDS011;11041;50.854;20.580;2022-07-06T10:53:57;4.07;;;3.00;;
21758;SDS011;11041;50.854;20.580;2022-07-06T10:56:36;3.80;;;2.95;;
21758;SDS011;11041;50.854;20.580;2022-07-06T10:59:38;4.45;;;3.17;;
21758;SDS011;11041;50.854;20.580;2022-07-06T11:02:13;6.20;;;3.25;;
21758;SDS011;11041;50.854;20.580;2022-07-06T11:04:46;5.53;;;3.47;;
21758;SDS011;11041;50.854;20.580;2022-07-06T11:07:15;4.18;;;3.00;;
21758;SDS011;11041;50.854;20.580;2022-07-06T11:09:57;3.50;;;3.20;;
21758;SDS011;11041;50.854;20.580;2022-07-06T11:12:25;5.25;;;3.63;;
21758;SDS011;11041;50.854;20.580;2022-07-06T11:14:52;3.85;;;3.38;;
21758;SDS011;11041;50.854;20.580;2022-07-06T11:17:20;3.58;;;3.28;;
21758;SDS011;11041;50.854;20.580;2022-07-06T11:19:56;3.60;;;3.30;;
21758;SDS011;11041;50.854;20.580;2022-07-06T11:22:35;4.72;;;4.00;;
21758;SDS011;11041;50.854;20.580;2022-07-06T11:25:04;4.47;;;4.10;;
21758;SDS011;11041;50.854;20.580;2022-07-06T11:27:33;10.45;;;4.13;;
21758;SDS011;11041;50.854;20.580;2022-07-06T11:30:00;6.68;;;4.25;;
21758;SDS011;11041;50.854;20.580;2022-07-06T11:32:27;4.20;;;3.80;;
21758;SDS011;11041;50.854;20.580;2022-07-06T11:34:54;5.68;;;5.05;;
21758;SDS011;11041;50.854;20.580;2022-07-06T11:37:21;5.68;;;4.90;;
21758;SDS011;11041;50.854;20.580;2022-07-06T11:39:48;7.03;;;4.82;;
21758;SDS011;11041;50.854;20.580;2022-07-06T11:42:16;5.63;;;5.00;;
21758;SDS011;11041;50.854;20.580;2022-07-06T11:44:44;6.32;;;5.72;;
21758;SDS011;11041;50.854;20.580;2022-07-06T11:47:12;7.57;;;5.28;;
21758;SDS011;11041;50.854;20.580;2022-07-06T11:49:39;8.48;;;5.55;;
21758;SDS011;11041;50.854;20.580;2022-07-06T11:52:10;8.05;;;5.57;;
21758;SDS011;11041;50.854;20.580;2022-07-06T11:54:39;6.82;;;5.95;;
21758;SDS011;11041;50.854;20.580;2022-07-06T11:57:09;6.53;;;5.78;;
21758;SDS011;11041;50.854;20.580;2022-07-06T11:59:38;6.40;;;5.90;;
21758;SDS011;11041;50.854;20.580;2022-07-06T12:02:07;9.48;;;7.07;;
21758;SDS011;11041;50.854;20.580;2022-07-06T12:04:38;8.60;;;7.82;;
21758;SDS011;11041;50.854;20.580;2022-07-06T12:07:08;9.38;;;8.48;;
21758;SDS011;11041;50.854;20.580;2022-07-06T12:09:40;9.25;;;8.40;;
21758;SDS011;11041;50.854;20.580;2022-07-06T12:12:12;12.38;;;8.32;;
21758;SDS011;11041;50.854;20.580;2022-07-06T12:14:39;9.73;;;8.73;;
21758;SDS011;11041;50.854;20.580;2022-07-06T12:17:11;12.50;;;9.38;;
21758;SDS011;11041;50.854;20.580;2022-07-06T12:19:41;13.40;;;10.07;;
21758;SDS011;11041;50.854;20.580;2022-07-06T12:22:08;14.52;;;9.90;;
21758;SDS011;11041;50.854;20.580;2022-07-06T12:24:36;13.98;;;11.02;;
21758;SDS011;11041;50.854;20.580;2022-07-06T12:27:17;10.73;;;9.63;;
21758;SDS011;11041;50.854;20.580;2022-07-06T12:29:46;12.23;;;11.13;;
21758;SDS011;11041;50.854;20.580;2022-07-06T12:32:17;12.45;;;11.13;;
21758;SDS011;11041;50.854;20.580;2022-07-06T12:35:01;12.07;;;11.00;;
21758;SDS011;11041;50.854;20.580;2022-07-06T12:37:33;11.90;;;10.70;;
21758;SDS011;11041;50.854;20.580;2022-07-06T12:40:00;10.80;;;10.00;;
21758;SDS011;11041;50.854;20.580;2022-07-06T12:42:28;12.98;;;11.20;;
21758;SDS011;11041;50.854;20.580;2022-07-06T12:44:55;11.73;;;10.73;;
21758;SDS011;11041;50.854;20.580;2022-07-06T12:47:22;11.98;;;10.75;;
21758;SDS011;11041;50.854;20.580;2022-07-06T12:52:38;13.60;;;12.20;;
21758;SDS011;11041;50.854;20.580;2022-07-06T12:55:06;14.32;;;13.02;;
21758;SDS011;11041;50.854;20.580;2022-07-06T12:57:45;14.88;;;13.35;;
21758;SDS011;11041;50.854;20.580;2022-07-06T13:00:15;14.85;;;13.48;;
21758;SDS011;11041;50.854;20.580;2022-07-06T13:02:46;15.18;;;13.68;;
21758;SDS011;11041;50.854;20.580;2022-07-06T13:05:24;15.82;;;13.27;;
21758;SDS011;11041;50.854;20.580;2022-07-06T13:07:55;15.50;;;13.88;;
21758;SDS011;11041;50.854;20.580;2022-07-06T13:10:24;13.55;;;12.25;;
21758;SDS011;11041;50.854;20.580;2022-07-06T13:12:51;13.10;;;11.85;;
21758;SDS011;11041;50.854;20.580;2022-07-06T13:15:18;14.63;;;13.32;;
21758;SDS011;11041;50.854;20.580;2022-07-06T13:17:46;16.73;;;13.98;;
21758;SDS011;11041;50.854;20.580;2022-07-06T13:20:12;15.00;;;13.50;;
21758;SDS011;11041;50.854;20.580;2022-07-06T13:22:42;15.27;;;13.82;;
21758;SDS011;11041;50.854;20.580;2022-07-06T13:25:09;15.52;;;14.05;;
21758;SDS011;11041;50.854;20.580;2022-07-06T13:27:35;16.75;;;15.05;;
21758;SDS011;11041;50.854;20.580;2022-07-06T13:30:02;14.25;;;12.95;;
21758;SDS011;11041;50.854;20.580;2022-07-06T13:32:29;11.95;;;10.75;;
21758;SDS011;11041;50.854;20.580;2022-07-06T13:34:56;12.00;;;10.93;;
21758;SDS011;11041;50.854;20.580;2022-07-06T13:37:22;12.27;;;11.15;;
21758;SDS011;11041;50.854;20.580;2022-07-06T13:39:49;12.73;;;11.48;;
21758;SDS011;11041;50.854;20.580;2022-07-06T13:42:16;13.80;;;12.35;;
21758;SDS011;11041;50.854;20.580;2022-07-06T13:44:43;15.15;;;11.38;;
21758;SDS011;11041;50.854;20.580;2022-07-06T13:47:10;13.32;;;11.90;;
21758;SDS011;11041;50.854;20.580;2022-07-06T13:49:37;12.43;;;11.30;;
21758;SDS011;11041;50.854;20.580;2022-07-06T13:52:03;13.00;;;11.45;;
21758;SDS011;11041;50.854;20.580;2022-07-06T13:54:31;12.38;;;11.05;;
21758;SDS011;11041;50.854;20.580;2022-07-06T13:56:58;11.63;;;10.32;;
21758;SDS011;11041;50.854;20.580;2022-07-06T13:59:29;13.35;;;11.10;;
21758;SDS011;11041;50.854;20.580;2022-07-06T14:01:56;11.25;;;9.98;;
21758;SDS011;11041;50.854;20.580;2022-07-06T14:04:23;11.73;;;10.52;;
21758;SDS011;11041;50.854;20.580;2022-07-06T14:06:49;10.50;;;9.15;;
21758;SDS011;11041;50.854;20.580;2022-07-06T14:09:16;11.05;;;8.70;;
21758;SDS011;11041;50.854;20.580;2022-07-06T14:11:42;7.60;;;7.00;;
21758;SDS011;11041;50.854;20.580;2022-07-06T14:14:08;10.27;;;7.82;;
21758;SDS011;11041;50.854;20.580;2022-07-06T14:16:35;10.73;;;7.53;;
21758;SDS011;11041;50.854;20.580;2022-07-06T14:19:02;8.48;;;7.68;;
21758;SDS011;11041;50.854;20.580;2022-07-06T14:21:28;8.13;;;7.32;;
21758;SDS011;11041;50.854;20.580;2022-07-06T14:23:55;9.10;;;6.32;;
21758;SDS011;11041;50.854;20.580;2022-07-06T14:26:21;8.93;;;5.65;;
21758;SDS011;11041;50.854;20.580;2022-07-06T14:28:48;11.00;;;5.38;;
21758;SDS011;11041;50.854;20.580;2022-07-06T14:31:15;7.55;;;5.00;;
21758;SDS011;11041;50.854;20.580;2022-07-06T14:33:41;7.00;;;5.20;;
21758;SDS011;11041;50.854;20.580;2022-07-06T14:36:08;5.28;;;4.78;;
21758;SDS011;11041;50.854;20.580;2022-07-06T14:38:34;7.80;;;5.03;;
21758;SDS011;11041;50.854;20.580;2022-07-06T14:41:01;6.38;;;5.05;;
21758;SDS011;11041;50.854;20.580;2022-07-06T14:43:27;7.88;;;5.20;;